Rhea — YP3227 — position and weather

sailwx.info

Track history (hours):
 
Tides and Currents Weather Stations Pressure Air Temp Water Temp Dewpoint Dewpoint Depression Visibility Wind Speed Wind Dir Waves Ship Positions

Rhea

Last reported at 2018-Jun-19 08:23 UTC. Time now 2018-Jun-19 14:25 UTC.
Position N 44°16' E 028°06'.

Length 80 m; draft 1 m.

Type: Ship. MMSI: 264163227.

Date/timePositionNaut miles runAvg speedWind from/ knotsBaromVisibWave heightAir tempDewpointWater temp
2018-Jun-19 08:23N 44°16' E 028°06'2 6.4
2018-Jun-19 08:00N 44°16' E 028°09'3 6.5
2018-Jun-19 07:30N 44°15' E 028°13'3 6.8
2018-Jun-19 07:00N 44°15' E 028°18'3 5.7
2018-Jun-19 06:29N 44°14' E 028°22'3 5.8
2018-Jun-19 05:59N 44°11' E 028°24'8 4.9
2018-Jun-19 04:18N 44°06' E 028°32'2 5.5
2018-Jun-19 04:00N 44°06' E 028°35'2 4.0
2018-Jun-19 03:30N 44°06' E 028°37'1 1.0
2018-Jun-19 03:00N 44°06' E 028°38'1 2.5
2018-Jun-19 02:30N 44°07' E 028°39'0 0.0
2018-Jun-19 02:00N 44°07' E 028°39'0 0.0
2018-Jun-19 01:30N 44°07' E 028°39'0 0.0
2018-Jun-19 01:00N 44°07' E 028°39'0 0.0
2018-Jun-19 00:30N 44°07' E 028°39'0 0.0
2018-Jun-19 00:00N 44°07' E 028°39'0 0.0
2018-Jun-18 23:28N 44°07' E 028°39'0 0.0
2018-Jun-18 23:00N 44°07' E 028°39'0 0.0
2018-Jun-18 22:30N 44°07' E 028°39'0 0.0
2018-Jun-18 22:00N 44°07' E 028°39'0 0.0
2018-Jun-18 21:30N 44°07' E 028°39'0 0.0
2018-Jun-18 21:00N 44°07' E 028°39'0 0.0
2018-Jun-18 20:30N 44°07' E 028°39'0 0.0
2018-Jun-18 20:00N 44°07' E 028°39'0 0.1
2018-Jun-18 19:30N 44°07' E 028°39'0 1.0
2018-Jun-18 19:00N 44°07' E 028°39'1 1.5
2018-Jun-18 18:30N 44°06' E 028°40'0 0.0
2018-Jun-18 18:00N 44°06' E 028°40'0 0.0
2018-Jun-18 17:30N 44°06' E 028°40'0 0.0
2018-Jun-18 17:00N 44°06' E 028°40'0 0.0
2018-Jun-18 16:30N 44°06' E 028°40'0 0.0
2018-Jun-18 16:00N 44°06' E 028°40'0 0.0
2018-Jun-18 15:30N 44°06' E 028°40'0 0.0
2018-Jun-18 15:00N 44°06' E 028°40'0 0.0
2018-Jun-18 14:30N 44°06' E 028°40'0 0.0
2018-Jun-18 14:00N 44°06' E 028°40'0 0.0
2018-Jun-18 13:30N 44°06' E 028°40'0 0.0
2018-Jun-18 13:00N 44°06' E 028°40'0 0.0
2018-Jun-18 12:30N 44°06' E 028°40'0 0.0
2018-Jun-18 12:00N 44°06' E 028°40'0 0.0
2018-Jun-18 11:30N 44°06' E 028°40'0 0.0
2018-Jun-18 11:00N 44°06' E 028°40'0 0.0
2018-Jun-18 10:30N 44°06' E 028°40'0 0.0
2018-Jun-18 10:00N 44°06' E 028°40'0 0.0
2018-Jun-18 09:29N 44°06' E 028°40'0 0.0
2018-Jun-18 09:00N 44°06' E 028°40'0 0.0
2018-Jun-18 08:30N 44°06' E 028°40'0 0.0
2018-Jun-18 07:59N 44°06' E 028°40'0 0.0
2018-Jun-18 07:30N 44°06' E 028°40'1 1.9
2018-Jun-18 07:00N 44°07' E 028°39'0 0.8
2018-Jun-18 06:30N 44°07' E 028°39'0 0.0
2018-Jun-18 06:00N 44°07' E 028°39'0 0.0
2018-Jun-18 05:30N 44°07' E 028°39'0 0.0
2018-Jun-18 05:00N 44°07' E 028°39'0 0.0
2018-Jun-18 04:30N 44°07' E 028°39'0 0.0
2018-Jun-18 04:00N 44°07' E 028°39'0 0.0
2018-Jun-18 03:30N 44°07' E 028°39'0 0.0
2018-Jun-18 03:00N 44°07' E 028°39'0 0.0
2018-Jun-18 02:30N 44°07' E 028°39'0 0.0
2018-Jun-18 02:00N 44°07' E 028°39'0 0.0
2018-Jun-18 01:30N 44°07' E 028°39'0 0.0
2018-Jun-18 01:00N 44°07' E 028°39'0 0.0
2018-Jun-18 00:30N 44°07' E 028°39'0 0.0
2018-Jun-18 00:00N 44°07' E 028°39'0 0.0
2018-Jun-17 23:30N 44°07' E 028°39'0 0.0
2018-Jun-17 23:00N 44°07' E 028°39'0 0.0
2018-Jun-17 22:30N 44°07' E 028°39'0 0.0
2018-Jun-17 22:00N 44°07' E 028°39'0 0.0
2018-Jun-17 21:30N 44°07' E 028°39'0 0.0
2018-Jun-17 21:00N 44°07' E 028°39'0 0.0
2018-Jun-17 20:30N 44°07' E 028°39'0 0.0
2018-Jun-17 20:00N 44°07' E 028°39'0 0.0
2018-Jun-17 19:30N 44°07' E 028°39'0 0.0
2018-Jun-17 19:00N 44°07' E 028°39'0 0.0
2018-Jun-17 18:30N 44°07' E 028°39'0 0.0
2018-Jun-17 18:00N 44°07' E 028°39'0 0.0
2018-Jun-17 17:30N 44°07' E 028°39'0 0.0
2018-Jun-17 17:00N 44°07' E 028°39'0 0.0
2018-Jun-17 16:30N 44°07' E 028°39'0 0.0
2018-Jun-17 16:00N 44°07' E 028°39'0 0.0
2018-Jun-17 15:30N 44°07' E 028°39'0 0.0
2018-Jun-17 15:00N 44°07' E 028°39'0 0.0
2018-Jun-17 14:30N 44°07' E 028°39'0 0.0
2018-Jun-17 14:00N 44°07' E 028°39'0 0.0
2018-Jun-17 13:30N 44°07' E 028°39'0 0.0
2018-Jun-17 13:00N 44°07' E 028°39'0 0.0
2018-Jun-17 12:30N 44°07' E 028°39'0 0.0
2018-Jun-17 12:00N 44°07' E 028°39'0 0.0
2018-Jun-17 11:30N 44°07' E 028°39'0 0.0
2018-Jun-17 11:00N 44°07' E 028°39'0 0.0
2018-Jun-17 10:30N 44°07' E 028°39'0 0.0
2018-Jun-17 10:00N 44°07' E 028°39'0 0.0
2018-Jun-17 09:30N 44°07' E 028°39'0 0.0
2018-Jun-17 09:00N 44°07' E 028°39'0 0.0
2018-Jun-17 08:30N 44°07' E 028°39'0 0.0
2018-Jun-17 08:00N 44°07' E 028°39'0 0.0
2018-Jun-17 07:30N 44°07' E 028°39'0 0.0
2018-Jun-17 07:00N 44°07' E 028°39'0 0.0
2018-Jun-17 06:30N 44°07' E 028°39'0 0.0
2018-Jun-17 06:00N 44°07' E 028°39'0 0.0
2018-Jun-17 05:30N 44°07' E 028°39'0 0.0
2018-Jun-17 05:00N 44°07' E 028°39'0 0.0
2018-Jun-17 04:30N 44°07' E 028°39'0 0.0
2018-Jun-17 04:00N 44°07' E 028°39'0 0.0
2018-Jun-17 03:30N 44°07' E 028°39'0 0.0
2018-Jun-17 03:00N 44°07' E 028°39'0 0.0
2018-Jun-17 02:30N 44°07' E 028°39'0 0.0
2018-Jun-17 02:00N 44°07' E 028°39'0 0.0
2018-Jun-17 01:30N 44°07' E 028°39'0 0.0
2018-Jun-17 01:00N 44°07' E 028°39'0 0.0
2018-Jun-17 00:30N 44°07' E 028°39'0 0.0
2018-Jun-17 00:00N 44°07' E 028°39'0 0.0
2018-Jun-16 23:30N 44°07' E 028°39'0 0.0
2018-Jun-16 23:00N 44°07' E 028°39'0 0.0
2018-Jun-16 22:30N 44°07' E 028°39'0 0.0
2018-Jun-16 22:00N 44°07' E 028°39'0 0.0
2018-Jun-16 21:30N 44°07' E 028°39'0 0.0
2018-Jun-16 21:00N 44°07' E 028°39'0 0.0
2018-Jun-16 20:30N 44°07' E 028°39'0 0.0
2018-Jun-16 20:00N 44°07' E 028°39'0 0.0
2018-Jun-16 19:30N 44°07' E 028°39'0 0.0
2018-Jun-16 19:00N 44°07' E 028°39'0 0.0
2018-Jun-16 18:30N 44°07' E 028°39'0 0.0
2018-Jun-16 18:00N 44°07' E 028°39'0 0.0
2018-Jun-16 17:30N 44°07' E 028°39'0 0.0
2018-Jun-16 17:00N 44°07' E 028°39'0 0.0
2018-Jun-16 16:30N 44°07' E 028°39'0 0.0
2018-Jun-16 16:00N 44°07' E 028°39'0 0.0
2018-Jun-16 15:30N 44°07' E 028°39'0 0.0
2018-Jun-16 15:00N 44°07' E 028°39'1 2.5
2018-Jun-16 14:30N 44°06' E 028°38'1 1.2
2018-Jun-16 14:00N 44°06' E 028°37'0 1.0
2018-Jun-16 13:30N 44°06' E 028°36'9 3.8
2018-Jun-16 11:00N 44°10' E 028°25'3 4.5
2018-Jun-16 10:25N 44°13' E 028°23'2 4.3
2018-Jun-16 09:54N 44°15' E 028°21'2 4.2
2018-Jun-16 09:30N 44°15' E 028°19'2 4.2
2018-Jun-16 08:58N 44°15' E 028°16'2 4.2
2018-Jun-16 08:30N 44°15' E 028°13'2 4.2
2018-Jun-16 08:00N 44°16' E 028°11'2 4.2
2018-Jun-16 07:27N 44°16' E 028°07'48 1.3
2018-Jun-14 19:17N 45°03' E 027°54'0 0.0
2018-Jun-14 19:00N 45°03' E 027°54'  
Track history (hours):
 
Tides and Currents Weather Stations Pressure Air Temp Water Temp Dewpoint Dewpoint Depression Visibility Wind Speed Wind Dir Waves Ship Positions

Rhea

Last reported at 2018-Jun-19 08:23 UTC. Time now 2018-Jun-19 14:25 UTC.
Position N 44°16' E 028°06'.

Length 80 m; draft 1 m.

Type: Ship. MMSI: 264163227.

Date/timePositionNaut miles runAvg speedWind from/ knotsBaromVisibWave heightAir tempDewpointWater temp
2018-Jun-19 08:23N 44°16' E 028°06'2 6.4
2018-Jun-19 08:00N 44°16' E 028°09'3 6.5
2018-Jun-19 07:30N 44°15' E 028°13'3 6.8
2018-Jun-19 07:00N 44°15' E 028°18'3 5.7
2018-Jun-19 06:29N 44°14' E 028°22'3 5.8
2018-Jun-19 05:59N 44°11' E 028°24'8 4.9
2018-Jun-19 04:18N 44°06' E 028°32'2 5.5
2018-Jun-19 04:00N 44°06' E 028°35'2 4.0
2018-Jun-19 03:30N 44°06' E 028°37'1 1.0
2018-Jun-19 03:00N 44°06' E 028°38'1 2.5
2018-Jun-19 02:30N 44°07' E 028°39'0 0.0
2018-Jun-19 02:00N 44°07' E 028°39'0 0.0
2018-Jun-19 01:30N 44°07' E 028°39'0 0.0
2018-Jun-19 01:00N 44°07' E 028°39'0 0.0
2018-Jun-19 00:30N 44°07' E 028°39'0 0.0
2018-Jun-19 00:00N 44°07' E 028°39'0 0.0
2018-Jun-18 23:28N 44°07' E 028°39'0 0.0
2018-Jun-18 23:00N 44°07' E 028°39'0 0.0
2018-Jun-18 22:30N 44°07' E 028°39'0 0.0
2018-Jun-18 22:00N 44°07' E 028°39'0 0.0
2018-Jun-18 21:30N 44°07' E 028°39'0 0.0
2018-Jun-18 21:00N 44°07' E 028°39'0 0.0
2018-Jun-18 20:30N 44°07' E 028°39'0 0.0
2018-Jun-18 20:00N 44°07' E 028°39'0 0.1
2018-Jun-18 19:30N 44°07' E 028°39'0 1.0
2018-Jun-18 19:00N 44°07' E 028°39'1 1.5
2018-Jun-18 18:30N 44°06' E 028°40'0 0.0
2018-Jun-18 18:00N 44°06' E 028°40'0 0.0
2018-Jun-18 17:30N 44°06' E 028°40'0 0.0
2018-Jun-18 17:00N 44°06' E 028°40'0 0.0
2018-Jun-18 16:30N 44°06' E 028°40'0 0.0
2018-Jun-18 16:00N 44°06' E 028°40'0 0.0
2018-Jun-18 15:30N 44°06' E 028°40'0 0.0
2018-Jun-18 15:00N 44°06' E 028°40'0 0.0
2018-Jun-18 14:30N 44°06' E 028°40'0 0.0
2018-Jun-18 14:00N 44°06' E 028°40'0 0.0
2018-Jun-18 13:30N 44°06' E 028°40'0 0.0
2018-Jun-18 13:00N 44°06' E 028°40'0 0.0
2018-Jun-18 12:30N 44°06' E 028°40'0 0.0
2018-Jun-18 12:00N 44°06' E 028°40'0 0.0
2018-Jun-18 11:30N 44°06' E 028°40'0 0.0
2018-Jun-18 11:00N 44°06' E 028°40'0 0.0
2018-Jun-18 10:30N 44°06' E 028°40'0 0.0
2018-Jun-18 10:00N 44°06' E 028°40'0 0.0
2018-Jun-18 09:29N 44°06' E 028°40'0 0.0
2018-Jun-18 09:00N 44°06' E 028°40'0 0.0
2018-Jun-18 08:30N 44°06' E 028°40'0 0.0
2018-Jun-18 07:59N 44°06' E 028°40'0 0.0
2018-Jun-18 07:30N 44°06' E 028°40'1 1.9
2018-Jun-18 07:00N 44°07' E 028°39'0 0.8
2018-Jun-18 06:30N 44°07' E 028°39'0 0.0
2018-Jun-18 06:00N 44°07' E 028°39'0 0.0
2018-Jun-18 05:30N 44°07' E 028°39'0 0.0
2018-Jun-18 05:00N 44°07' E 028°39'0 0.0
2018-Jun-18 04:30N 44°07' E 028°39'0 0.0
2018-Jun-18 04:00N 44°07' E 028°39'0 0.0
2018-Jun-18 03:30N 44°07' E 028°39'0 0.0
2018-Jun-18 03:00N 44°07' E 028°39'0 0.0
2018-Jun-18 02:30N 44°07' E 028°39'0 0.0
2018-Jun-18 02:00N 44°07' E 028°39'0 0.0
2018-Jun-18 01:30N 44°07' E 028°39'0 0.0
2018-Jun-18 01:00N 44°07' E 028°39'0 0.0
2018-Jun-18 00:30N 44°07' E 028°39'0 0.0
2018-Jun-18 00:00N 44°07' E 028°39'0 0.0
2018-Jun-17 23:30N 44°07' E 028°39'0 0.0
2018-Jun-17 23:00N 44°07' E 028°39'0 0.0
2018-Jun-17 22:30N 44°07' E 028°39'0 0.0
2018-Jun-17 22:00N 44°07' E 028°39'0 0.0
2018-Jun-17 21:30N 44°07' E 028°39'0 0.0
2018-Jun-17 21:00N 44°07' E 028°39'0 0.0
2018-Jun-17 20:30N 44°07' E 028°39'0 0.0
2018-Jun-17 20:00N 44°07' E 028°39'0 0.0
2018-Jun-17 19:30N 44°07' E 028°39'0 0.0
2018-Jun-17 19:00N 44°07' E 028°39'0 0.0
2018-Jun-17 18:30N 44°07' E 028°39'0 0.0
2018-Jun-17 18:00N 44°07' E 028°39'0 0.0
2018-Jun-17 17:30N 44°07' E 028°39'0 0.0
2018-Jun-17 17:00N 44°07' E 028°39'0 0.0
2018-Jun-17 16:30N 44°07' E 028°39'0 0.0
2018-Jun-17 16:00N 44°07' E 028°39'0 0.0
2018-Jun-17 15:30N 44°07' E 028°39'0 0.0
2018-Jun-17 15:00N 44°07' E 028°39'0 0.0
2018-Jun-17 14:30N 44°07' E 028°39'0 0.0
2018-Jun-17 14:00N 44°07' E 028°39'0 0.0
2018-Jun-17 13:30N 44°07' E 028°39'0 0.0
2018-Jun-17 13:00N 44°07' E 028°39'0 0.0
2018-Jun-17 12:30N 44°07' E 028°39'0 0.0
2018-Jun-17 12:00N 44°07' E 028°39'0 0.0
2018-Jun-17 11:30N 44°07' E 028°39'0 0.0
2018-Jun-17 11:00N 44°07' E 028°39'0 0.0
2018-Jun-17 10:30N 44°07' E 028°39'0 0.0
2018-Jun-17 10:00N 44°07' E 028°39'0 0.0
2018-Jun-17 09:30N 44°07' E 028°39'0 0.0
2018-Jun-17 09:00N 44°07' E 028°39'0 0.0
2018-Jun-17 08:30N 44°07' E 028°39'0 0.0
2018-Jun-17 08:00N 44°07' E 028°39'0 0.0
2018-Jun-17 07:30N 44°07' E 028°39'0 0.0
2018-Jun-17 07:00N 44°07' E 028°39'0 0.0
2018-Jun-17 06:30N 44°07' E 028°39'0 0.0
2018-Jun-17 06:00N 44°07' E 028°39'0 0.0
2018-Jun-17 05:30N 44°07' E 028°39'0 0.0
2018-Jun-17 05:00N 44°07' E 028°39'0 0.0
2018-Jun-17 04:30N 44°07' E 028°39'0 0.0
2018-Jun-17 04:00N 44°07' E 028°39'0 0.0
2018-Jun-17 03:30N 44°07' E 028°39'0 0.0
2018-Jun-17 03:00N 44°07' E 028°39'0 0.0
2018-Jun-17 02:30N 44°07' E 028°39'0 0.0
2018-Jun-17 02:00N 44°07' E 028°39'0 0.0
2018-Jun-17 01:30N 44°07' E 028°39'0 0.0
2018-Jun-17 01:00N 44°07' E 028°39'0 0.0
2018-Jun-17 00:30N 44°07' E 028°39'0 0.0
2018-Jun-17 00:00N 44°07' E 028°39'0 0.0
2018-Jun-16 23:30N 44°07' E 028°39'0 0.0
2018-Jun-16 23:00N 44°07' E 028°39'0 0.0
2018-Jun-16 22:30N 44°07' E 028°39'0 0.0
2018-Jun-16 22:00N 44°07' E 028°39'0 0.0
2018-Jun-16 21:30N 44°07' E 028°39'0 0.0
2018-Jun-16 21:00N 44°07' E 028°39'0 0.0
2018-Jun-16 20:30N 44°07' E 028°39'0 0.0
2018-Jun-16 20:00N 44°07' E 028°39'0 0.0
2018-Jun-16 19:30N 44°07' E 028°39'0 0.0
2018-Jun-16 19:00N 44°07' E 028°39'0 0.0
2018-Jun-16 18:30N 44°07' E 028°39'0 0.0
2018-Jun-16 18:00N 44°07' E 028°39'0 0.0
2018-Jun-16 17:30N 44°07' E 028°39'0 0.0
2018-Jun-16 17:00N 44°07' E 028°39'0 0.0
2018-Jun-16 16:30N 44°07' E 028°39'0 0.0
2018-Jun-16 16:00N 44°07' E 028°39'0 0.0
2018-Jun-16 15:30N 44°07' E 028°39'0 0.0
2018-Jun-16 15:00N 44°07' E 028°39'1 2.5
2018-Jun-16 14:30N 44°06' E 028°38'1 1.2
2018-Jun-16 14:00N 44°06' E 028°37'0 1.0
2018-Jun-16 13:30N 44°06' E 028°36'9 3.8
2018-Jun-16 11:00N 44°10' E 028°25'3 4.5
2018-Jun-16 10:25N 44°13' E 028°23'2 4.3
2018-Jun-16 09:54N 44°15' E 028°21'2 4.2
2018-Jun-16 09:30N 44°15' E 028°19'2 4.2
2018-Jun-16 08:58N 44°15' E 028°16'2 4.2
2018-Jun-16 08:30N 44°15' E 028°13'2 4.2
2018-Jun-16 08:00N 44°16' E 028°11'2 4.2
2018-Jun-16 07:27N 44°16' E 028°07'48 1.3
2018-Jun-14 19:17N 45°03' E 027°54'0 0.0
2018-Jun-14 19:00N 45°03' E 027°54'  

Dump ship's entire track history